Time;durP1;ratioP1;P1;durP2;ratioP2;P2;SDS_P1;SDS_P2;PMS_P1;PMS_P2;Temp;Humidity;BMP_temperature;BMP_pressure;BME280_temperature;BME280_humidity;BME280_pressure;Samples;Min_cycle;Max_cycle;Signal;HPM_P1;HPM_P2
2022/08/15 00:01:30;;;;;;;;;;;;;;;18.80;60.80;99674.34;5008253;28;20447;-85
2022/08/15 00:04:04;;;;;;;;;;;;;;;18.80;60.79;99673.53;4993112;28;20052;-85
2022/08/15 00:06:52;;;;;;;;;;;;;;;18.77;60.78;99677.66;4993676;28;20059;-83
2022/08/15 00:09:23;;;;;;;;;;;;;;;18.78;60.83;99673.81;5003034;28;20412;-83
2022/08/15 00:12:10;;;;;;;;;;;;;;;18.80;60.63;99676.28;5008485;28;20359;-85
2022/08/15 00:14:57;;;;;;;;;;;;;;;18.84;60.84;99674.63;5008089;28;19929;-85
2022/08/15 00:17:25;;;;;;;;;;;;;;;18.85;60.88;99681.72;5008846;28;19929;-85
2022/08/15 00:20:12;;;;;;;;;;;;;;;18.86;60.81;99675.13;4995551;28;20508;-85
2022/08/15 00:22:48;;;;;;;;;;;;;;;18.88;60.93;99680.34;5008892;28;20400;-85
2022/08/15 00:25:17;;;;;;;;;;;;;;;18.84;61.08;99678.16;5009037;28;20020;-85
2022/08/15 00:27:51;;;;;;;;;;;;;;;18.81;61.09;99675.16;5009221;28;19933;-85
2022/08/15 00:30:20;;;;;;;;;;;;;;;18.77;61.14;99685.06;5009823;28;19940;-84
2022/08/15 00:32:55;;;;;;;;;;;;;;;18.75;61.39;99685.31;5039219;28;19932;-85
2022/08/15 00:35:36;;;;;;;;;;;;;;;18.74;61.26;99689.13;5021297;28;19935;-84
2022/08/15 00:38:11;;;;;;;;;;;;;;;18.76;61.37;99686.13;5054756;28;19932;-86
2022/08/15 00:43:48;;;;;;;;;;;;;;;18.74;61.64;99688.31;5032606;28;19936;-84
2022/08/15 00:46:16;;;;;;;;;;;;;;;18.73;61.72;99689.41;5032481;28;19960;-84
2022/08/15 00:48:52;;;;;;;;;;;;;;;18.77;61.29;99685.06;5032060;28;20010;-85
2022/08/15 00:51:35;;;;;;;;;;;;;;;18.72;61.41;99685.84;5032455;28;19945;-85
2022/08/15 00:54:05;;;;;;;;;;;;;;;18.73;61.37;99681.19;5016798;28;19951;-85
2022/08/15 00:56:34;;;;;;;;;;;;;;;18.71;61.39;99686.13;5032839;28;20415;-86
2022/08/15 00:59:02;;;;;;;;;;;;;;;18.75;61.30;99679.84;5033789;28;19937;-87
2022/08/15 01:01:32;;;;;;;;;;;;;;;18.72;61.21;99696.00;5033071;28;19929;-87
2022/08/15 01:04:01;;;;;;;;;;;;;;;18.68;61.59;99695.72;5016260;28;19937;-88
2022/08/15 01:06:33;;;;;;;;;;;;;;;18.67;61.63;99688.63;5032256;28;19929;-86
2022/08/15 01:09:03;;;;;;;;;;;;;;;18.65;61.66;99690.81;5048816;28;19996;-86
2022/08/15 01:11:40;;;;;;;;;;;;;;;18.64;61.55;99689.19;5043537;28;20395;-86
2022/08/15 01:14:07;;;;;;;;;;;;;;;18.61;61.66;99701.50;5036934;28;19928;-86
2022/08/15 01:16:54;;;;;;;;;;;;;;;18.59;61.95;99702.88;5066872;28;20039;-84
2022/08/15 01:19:26;;;;;;;;;;;;;;;18.56;62.06;99704.25;5054207;28;19990;-86
2022/08/15 01:22:07;;;;;;;;;;;;;;;18.52;62.33;99705.91;5043479;28;20567;-86
2022/08/15 01:24:56;;;;;;;;;;;;;;;18.49;62.88;99703.75;5049093;28;19929;-86
2022/08/15 01:27:51;;;;;;;;;;;;;;;18.41;63.49;99704.31;5035831;28;20020;-85
2022/08/15 01:30:21;;;;;;;;;;;;;;;18.42;63.48;99706.75;5033237;28;19968;-85
2022/08/15 01:33:08;;;;;;;;;;;;;;;18.41;63.20;99707.06;5029949;28;20285;-85
2022/08/15 01:35:36;;;;;;;;;;;;;;;18.41;63.34;99707.06;5016482;28;19929;-86
2022/08/15 01:38:18;;;;;;;;;;;;;;;18.38;63.27;99702.13;5032737;28;19929;-86
2022/08/15 01:41:16;;;;;;;;;;;;;;;18.38;63.35;99704.88;5032460;28;19929;-86
2022/08/15 01:43:58;;;;;;;;;;;;;;;18.35;63.29;99706.25;5031725;28;19983;-87
2022/08/15 01:47:09;;;;;;;;;;;;;;;18.31;63.63;99707.09;5048889;28;19929;-86
2022/08/15 01:49:59;;;;;;;;;;;;;;;18.26;63.88;99707.13;5023490;28;20027;-86
2022/08/15 01:52:59;;;;;;;;;;;;;;;18.23;64.06;99708.50;5016515;28;19929;-86
2022/08/15 01:55:50;;;;;;;;;;;;;;;18.24;64.08;99712.03;5025844;28;19929;-85
2022/08/15 01:58:24;;;;;;;;;;;;;;;18.24;64.19;99717.50;5032230;28;19969;-85
2022/08/15 02:00:59;;;;;;;;;;;;;;;18.25;64.03;99719.13;5048694;28;19936;-86
2022/08/15 02:03:36;;;;;;;;;;;;;;;18.27;64.33;99716.94;5032461;28;19929;-85
2022/08/15 02:06:20;;;;;;;;;;;;;;;18.25;64.39;99721.84;5046442;28;20419;-85
2022/08/15 02:09:02;;;;;;;;;;;;;;;18.25;64.55;99725.41;5031988;28;19937;-84
2022/08/15 02:11:46;;;;;;;;;;;;;;;18.23;64.77;99724.88;5031744;28;20523;-85
2022/08/15 02:14:31;;;;;;;;;;;;;;;18.22;65.06;99725.16;5031877;28;19933;-83
2022/08/15 02:17:03;;;;;;;;;;;;;;;18.19;64.80;99727.34;5033163;28;19983;-85
2022/08/15 02:19:38;;;;;;;;;;;;;;;18.16;64.94;99727.09;5033160;28;20284;-84
2022/08/15 02:22:12;;;;;;;;;;;;;;;18.16;64.88;99721.63;5026628;28;19936;-84
2022/08/15 02:24:57;;;;;;;;;;;;;;;18.16;64.88;99733.34;5068196;28;19935;-85
2022/08/15 02:27:31;;;;;;;;;;;;;;;18.14;64.93;99721.88;5052201;28;20380;-85
2022/08/15 02:30:10;;;;;;;;;;;;;;;18.12;65.23;99726.81;5051476;28;19983;-86
2022/08/15 02:32:39;;;;;;;;;;;;;;;18.10;65.34;99728.16;5052704;28;20023;-85
2022/08/15 02:35:08;;;;;;;;;;;;;;;18.09;65.36;99719.16;5068690;28;19928;-85
2022/08/15 02:37:36;;;;;;;;;;;;;;;18.07;65.33;99726.81;5068400;28;19929;-84
2022/08/15 02:40:08;;;;;;;;;;;;;;;18.09;65.61;99721.91;5049225;28;20315;-86
2022/08/15 02:42:56;;;;;;;;;;;;;;;18.13;65.66;99727.66;5067703;28;19929;-85
2022/08/15 02:45:23;;;;;;;;;;;;;;;18.13;65.63;99728.44;5051103;28;20403;-85
2022/08/15 02:47:54;;;;;;;;;;;;;;;18.17;65.74;99728.72;5051045;28;19936;-85
2022/08/15 02:50:22;;;;;;;;;;;;;;;18.19;65.80;99735.53;5052402;28;19956;-85
2022/08/15 02:52:50;;;;;;;;;;;;;;;18.23;65.92;99737.69;5067808;28;19952;-85
2022/08/15 02:55:21;;;;;;;;;;;;;;;18.25;66.01;99736.31;5067567;28;19939;-85
2022/08/15 02:57:51;;;;;;;;;;;;;;;18.29;66.24;99737.41;5053264;28;20288;-85
2022/08/15 03:00:31;;;;;;;;;;;;;;;18.35;66.23;99740.94;5034103;28;20406;-84
2022/08/15 03:03:06;;;;;;;;;;;;;;;18.44;66.31;99755.69;5030771;28;19936;-86
2022/08/15 03:05:36;;;;;;;;;;;;;;;18.46;66.26;99745.31;5031430;28;19929;-86
2022/08/15 03:08:03;;;;;;;;;;;;;;;18.53;66.29;99743.06;5031116;28;19933;-86
2022/08/15 03:10:32;;;;;;;;;;;;;;;18.63;66.29;99743.06;5030921;28;19928;-85
2022/08/15 03:13:11;;;;;;;;;;;;;;;18.70;66.07;99745.47;5030930;28;19961;-86
2022/08/15 03:15:42;;;;;;;;;;;;;;;18.79;65.93;99738.34;5030746;28;20020;-86
2022/08/15 03:18:24;;;;;;;;;;;;;;;18.89;65.86;99748.44;5047233;28;19952;-86
2022/08/15 03:21:04;;;;;;;;;;;;;;;18.96;65.58;99745.38;5048843;28;19983;-86
2022/08/15 03:23:32;;;;;;;;;;;;;;;18.97;65.67;99745.09;5033862;28;20263;-85
2022/08/15 03:26:12;;;;;;;;;;;;;;;18.99;65.48;99755.75;5067269;28;19932;-87
2022/08/15 03:29:01;;;;;;;;;;;;;;;18.97;65.54;99756.03;5067205;28;19928;-86
2022/08/15 03:31:36;;;;;;;;;;;;;;;18.98;65.63;99746.72;5067322;28;20378;-86
2022/08/15 03:34:13;;;;;;;;;;;;;;;18.98;65.71;99752.19;5067489;28;19929;-86
2022/08/15 03:36:45;;;;;;;;;;;;;;;19.01;65.63;99748.88;5069324;28;20031;-85
2022/08/15 03:39:19;;;;;;;;;;;;;;;19.12;65.29;99751.59;5068226;28;19935;-85
2022/08/15 03:41:46;;;;;;;;;;;;;;;19.18;65.23;99747.72;5067394;28;20016;-86
2022/08/15 03:44:23;;;;;;;;;;;;;;;19.28;65.00;99742.16;5067247;28;19986;-86
2022/08/15 03:46:54;;;;;;;;;;;;;;;19.40;64.69;99745.38;5051176;28;20287;-86
2022/08/15 03:49:23;;;;;;;;;;;;;;;19.51;64.45;99750.78;5066815;28;19929;-85
2022/08/15 03:52:10;;;;;;;;;;;;;;;19.64;64.19;99739.97;5057735;28;19936;-86
2022/08/15 03:54:40;;;;;;;;;;;;;;;19.78;64.00;99744.84;5055276;28;19961;-87
2022/08/15 03:57:16;;;;;;;;;;;;;;;19.83;63.93;99748.34;5042222;28;19977;-85
2022/08/15 03:59:47;;;;;;;;;;;;;;;19.90;63.66;99748.81;5028161;28;19933;-86
2022/08/15 04:02:14;;;;;;;;;;;;;;;20.00;63.62;99752.56;5047132;28;20415;-84
2022/08/15 04:04:59;;;;;;;;;;;;;;;20.05;63.57;99747.88;4999821;28;19964;-85
2022/08/15 04:07:32;;;;;;;;;;;;;;;20.06;63.61;99749.50;5049318;28;20308;-87
2022/08/15 04:10:12;;;;;;;;;;;;;;;20.16;63.42;99756.78;5050950;28;19956;-85
2022/08/15 04:13:03;;;;;;;;;;;;;;;20.26;63.36;99742.97;5050440;28;20392;-85
2022/08/15 04:15:35;;;;;;;;;;;;;;;20.37;63.44;99753.84;5059781;28;19928;-84
2022/08/15 04:18:03;;;;;;;;;;;;;;;20.44;63.12;99757.06;4709201;28;10000498;-83
2022/08/15 04:20:53;;;;;;;;;;;;;;;20.53;63.43;99747.91;5048003;28;19998;-86
2022/08/15 04:23:21;;;;;;;;;;;;;;;20.64;63.02;99754.09;5027845;28;20300;-86
2022/08/15 04:25:49;;;;;;;;;;;;;;;20.70;62.66;99747.41;5049555;28;19932;-84
2022/08/15 04:28:24;;;;;;;;;;;;;;;20.74;62.81;99759.44;5026781;28;19929;-84
2022/08/15 04:31:13;;;;;;;;;;;;;;;20.79;62.82;99750.34;5025230;28;19987;-84
2022/08/15 04:33:42;;;;;;;;;;;;;;;20.86;62.56;99747.22;5057902;28;19933;-84
2022/08/15 04:36:30;;;;;;;;;;;;;;;20.94;62.19;99754.78;5060551;28;19976;-88
2022/08/15 04:39:01;;;;;;;;;;;;;;;20.99;62.12;99757.50;5043881;28;19935;-85
2022/08/15 04:41:33;;;;;;;;;;;;;;;21.04;61.73;99751.94;5034599;28;20034;-85
2022/08/15 04:44:09;;;;;;;;;;;;;;;21.11;61.78;99757.03;5052168;28;19935;-84
2022/08/15 04:46:51;;;;;;;;;;;;;;;21.23;61.46;99756.59;5066697;28;19929;-85
2022/08/15 04:49:19;;;;;;;;;;;;;;;21.35;61.23;99755.03;5070115;28;19928;-86
2022/08/15 04:51:49;;;;;;;;;;;;;;;21.50;60.60;99751.28;5071084;28;19955;-86
2022/08/15 04:54:17;;;;;;;;;;;;;;;21.69;60.25;99758.66;5053415;28;19935;-86
2022/08/15 04:56:56;;;;;;;;;;;;;;;21.84;59.80;99745.47;5067682;28;19996;-86
2022/08/15 04:59:27;;;;;;;;;;;;;;;22.01;59.29;99747.66;5049055;28;19975;-87
2022/08/15 05:02:08;;;;;;;;;;;;;;;22.21;58.64;99751.19;5067491;28;20036;-85
2022/08/15 05:04:56;;;;;;;;;;;;;;;22.37;58.23;99762.72;5065208;28;19933;-86
2022/08/15 05:07:23;;;;;;;;;;;;;;;22.51;57.82;99758.03;5069410;28;20370;-87
2022/08/15 05:09:55;;;;;;;;;;;;;;;22.62;57.39;99753.13;5049208;28;19929;-85
2022/08/15 05:12:30;;;;;;;;;;;;;;;22.68;56.92;99758.22;5065176;28;19936;-86
2022/08/15 05:15:19;;;;;;;;;;;;;;;22.72;56.47;99759.22;5033629;28;20518;-85
2022/08/15 05:17:52;;;;;;;;;;;;;;;22.82;56.15;99757.41;5021927;28;19929;-85
2022/08/15 05:20:26;;;;;;;;;;;;;;;22.92;55.37;99758.00;5063254;28;19928;-85
2022/08/15 05:22:59;;;;;;;;;;;;;;;22.99;55.07;99757.63;5048704;28;19929;-83
2022/08/15 05:25:35;;;;;;;;;;;;;;;23.05;55.02;99758.31;5050551;28;19959;-84
2022/08/15 05:28:09;;;;;;;;;;;;;;;23.05;54.97;99750.06;5050369;28;19936;-83
2022/08/15 05:30:57;;;;;;;;;;;;;;;23.15;54.35;99756.13;5049914;28;19958;-82
2022/08/15 05:33:42;;;;;;;;;;;;;;;23.23;54.23;99756.53;5049906;28;19929;-82
2022/08/15 05:36:24;;;;;;;;;;;;;;;23.25;53.85;99748.78;5057962;28;19936;-84
2022/08/15 05:39:23;;;;;;;;;;;;;;;23.36;53.71;99748.22;5033593;28;19928;-82
2022/08/15 05:42:05;;;;;;;;;;;;;;;23.45;52.94;99748.28;5048591;28;20341;-84
2022/08/15 05:45:00;;;;;;;;;;;;;;;23.57;52.93;99739.44;5032396;28;19982;-82
2022/08/15 05:47:28;;;;;;;;;;;;;;;23.69;52.35;99747.97;5045664;28;19959;-83
2022/08/15 05:49:58;;;;;;;;;;;;;;;23.76;51.56;99748.38;5064105;28;19935;-85
2022/08/15 05:52:50;;;;;;;;;;;;;;;23.83;51.29;99750.69;5028668;28;20291;-84
2022/08/15 05:55:19;;;;;;;;;;;;;;;23.94;51.19;99749.28;5063371;28;20027;-84
2022/08/15 05:57:54;;;;;;;;;;;;;;;24.04;51.17;99741.91;5046386;28;19964;-85
2022/08/15 06:00:25;;;;;;;;;;;;;;;24.12;50.67;99736.41;5048908;28;19929;-85
2022/08/15 06:03:02;;;;;;;;;;;;;;;24.12;50.59;99733.66;5048254;28;19936;-85
2022/08/15 06:05:41;;;;;;;;;;;;;;;24.02;50.01;99734.72;5064835;28;19936;-85
2022/08/15 06:08:11;;;;;;;;;;;;;;;24.02;50.15;99731.97;5031456;28;19929;-84
2022/08/15 06:11:03;;;;;;;;;;;;;;;24.16;49.34;99731.91;5050408;28;19975;-86
2022/08/15 06:13:37;;;;;;;;;;;;;;;24.39;49.05;99740.09;5048499;28;20618;-86
2022/08/15 06:16:17;;;;;;;;;;;;;;;24.54;48.24;99731.44;5048235;28;19983;-84
2022/08/15 06:19:12;;;;;;;;;;;;;;;24.81;47.56;99735.06;5019170;28;19929;-85
2022/08/15 06:21:44;;;;;;;;;;;;;;;24.96;47.20;99733.78;5046068;28;19929;-87
2022/08/15 06:24:23;;;;;;;;;;;;;;;25.04;46.43;99739.34;5033359;28;19940;-88
2022/08/15 06:27:03;;;;;;;;;;;;;;;25.12;46.12;99745.16;5044924;28;20433;-86
2022/08/15 06:29:53;;;;;;;;;;;;;;;25.17;45.93;99751.38;5067595;28;19964;-86
2022/08/15 06:32:22;;;;;;;;;;;;;;;25.15;45.69;99745.34;5058025;28;20311;-86
2022/08/15 06:35:03;;;;;;;;;;;;;;;25.25;46.00;99744.25;5016017;28;20024;-89
2022/08/15 06:37:39;;;;;;;;;;;;;;;25.42;45.36;99747.00;5057185;28;20023;-85
2022/08/15 06:40:44;;;;;;;;;;;;;;;25.58;45.41;99749.28;5054265;28;19998;-86
2022/08/15 06:43:13;;;;;;;;;;;;;;;25.68;44.45;99751.69;5050898;28;19939;-86
2022/08/15 06:45:56;;;;;;;;;;;;;;;25.75;44.21;99754.78;5047822;28;19959;-85
2022/08/15 06:48:24;;;;;;;;;;;;;;;25.72;43.83;99749.88;5014639;28;20036;-86
2022/08/15 06:51:20;;;;;;;;;;;;;;;25.83;43.38;99747.63;5049318;28;19928;-85
2022/08/15 06:53:54;;;;;;;;;;;;;;;25.82;43.48;99755.06;5049075;28;19968;-85
2022/08/15 06:56:33;;;;;;;;;;;;;;;25.87;43.13;99757.69;5033856;28;19935;-85
2022/08/15 06:59:24;;;;;;;;;;;;;;;25.85;43.00;99759.16;5064878;28;19933;-87
2022/08/15 07:02:24;;;;;;;;;;;;;;;25.80;43.18;99754.59;5022168;28;19928;-87
2022/08/15 07:05:17;;;;;;;;;;;;;;;25.74;43.29;99759.47;5050445;28;20356;-84
2022/08/15 07:08:00;;;;;;;;;;;;;;;25.85;43.26;99757.22;5041635;28;19967;-86
2022/08/15 07:10:33;;;;;;;;;;;;;;;25.90;43.24;99757.06;5066149;28;19929;-85
2022/08/15 07:13:14;;;;;;;;;;;;;;;25.99;43.80;99754.25;5041283;28;19951;-86
2022/08/15 07:15:42;;;;;;;;;;;;;;;26.11;43.09;99756.34;5033035;28;20023;-87
2022/08/15 07:18:29;;;;;;;;;;;;;;;26.14;41.82;99756.50;5052285;28;20036;-86
2022/08/15 07:21:09;;;;;;;;;;;;;;;26.16;41.71;99758.94;5050023;28;20427;-89
2022/08/15 07:23:59;;;;;;;;;;;;;;;26.11;41.30;99759.13;5032848;28;19931;-86
2022/08/15 07:26:28;;;;;;;;;;;;;;;26.07;41.65;99761.72;5050599;28;19928;-87
2022/08/15 07:28:58;;;;;;;;;;;;;;;26.10;40.89;99765.78;5067450;28;19928;-87
2022/08/15 07:31:39;;;;;;;;;;;;;;;26.15;40.68;99766.41;5064979;28;19990;-85
2022/08/15 07:34:29;;;;;;;;;;;;;;;26.24;40.80;99760.84;5064613;28;19936;-86
2022/08/15 07:36:57;;;;;;;;;;;;;;;26.38;40.76;99758.69;5046026;28;20031;-86
2022/08/15 07:39:28;;;;;;;;;;;;;;;26.47;40.44;99763.38;5050216;28;20031;-86
2022/08/15 07:42:10;;;;;;;;;;;;;;;26.63;39.81;99756.16;5004044;28;19935;-87
2022/08/15 07:44:58;;;;;;;;;;;;;;;26.65;40.01;99753.88;5056536;28;19975;-86
2022/08/15 07:47:34;;;;;;;;;;;;;;;26.45;40.31;99754.59;5027106;28;19929;-87
2022/08/15 07:50:10;;;;;;;;;;;;;;;26.54;39.20;99756.22;5045838;28;19968;-86
2022/08/15 07:52:55;;;;;;;;;;;;;;;26.70;39.53;99748.13;5059410;28;20040;-86
2022/08/15 07:55:24;;;;;;;;;;;;;;;26.67;39.63;99754.34;5060244;28;20723;-86
2022/08/15 07:58:16;;;;;;;;;;;;;;;26.55;39.70;99757.00;5052587;28;19929;-86
2022/08/15 08:01:07;;;;;;;;;;;;;;;26.36;39.78;99754.63;5072186;28;19936;-85
2022/08/15 08:03:58;;;;;;;;;;;;;;;26.72;39.60;99762.47;5068821;28;19929;-87
2022/08/15 08:06:27;;;;;;;;;;;;;;;27.13;37.94;99763.66;5031860;28;19944;-87
2022/08/15 08:09:18;;;;;;;;;;;;;;;27.53;37.51;99767.97;5038405;28;19929;-88
2022/08/15 08:11:50;;;;;;;;;;;;;;;27.90;37.66;99762.56;5030844;28;20383;-86
2022/08/15 08:14:39;;;;;;;;;;;;;;;28.01;36.96;99764.56;5046690;28;19943;-86
2022/08/15 08:17:28;;;;;;;;;;;;;;;28.27;37.07;99750.38;5018112;28;19939;-86
2022/08/15 08:20:18;;;;;;;;;;;;;;;28.25;35.96;99751.88;5062088;28;20583;-86
2022/08/15 08:23:03;;;;;;;;;;;;;;;28.42;35.98;99762.78;5058421;28;19938;-87
2022/08/15 08:25:34;;;;;;;;;;;;;;;28.75;35.51;99753.56;5060861;28;19940;-87
2022/08/15 08:28:29;;;;;;;;;;;;;;;28.95;34.89;99743.47;5066576;28;20036;-86
2022/08/15 08:31:08;;;;;;;;;;;;;;;28.96;34.54;99747.84;5035937;28;20329;-89
2022/08/15 08:33:48;;;;;;;;;;;;;;;29.29;34.27;99746.88;5032152;28;20389;-86
2022/08/15 08:36:40;;;;;;;;;;;;;;;29.64;33.46;99738.75;5051887;28;20000;-86
2022/08/15 08:39:11;;;;;;;;;;;;;;;29.84;32.47;99736.94;5063245;28;19933;-85
2022/08/15 08:41:58;;;;;;;;;;;;;;;30.10;31.77;99738.41;5044558;28;20354;-85
2022/08/15 08:44:34;;;;;;;;;;;;;;;30.43;31.24;99749.22;5047951;28;19928;-87
2022/08/15 08:47:10;;;;;;;;;;;;;;;30.47;31.34;99752.91;5065928;28;20185;-85
2022/08/15 08:49:47;;;;;;;;;;;;;;;30.59;30.85;99749.22;5050931;28;19928;-86
2022/08/15 08:52:34;;;;;;;;;;;;;;;30.71;30.73;99739.94;5052297;28;19933;-85
2022/08/15 08:55:07;;;;;;;;;;;;;;;30.58;31.04;99744.81;5054025;28;19929;-86
2022/08/15 08:57:46;;;;;;;;;;;;;;;30.64;30.84;99746.16;5055312;28;19978;-86
2022/08/15 09:00:20;;;;;;;;;;;;;;;30.96;30.46;99746.09;5054357;28;19986;-87
2022/08/15 09:03:02;;;;;;;;;;;;;;;31.26;29.73;99743.59;5054934;28;19935;-86
2022/08/15 09:05:35;;;;;;;;;;;;;;;31.46;29.47;99738.84;5055407;28;20367;-86
2022/08/15 09:08:27;;;;;;;;;;;;;;;31.84;29.16;99745.56;5050827;28;19929;-87
2022/08/15 09:10:56;;;;;;;;;;;;;;;32.11;28.55;99744.50;5053935;28;19960;-87
2022/08/15 09:13:35;;;;;;;;;;;;;;;32.26;28.47;99733.56;5020466;28;20395;-85
2022/08/15 09:16:08;;;;;;;;;;;;;;;32.17;28.21;99737.41;5053788;28;19936;-87
2022/08/15 09:18:46;;;;;;;;;;;;;;;32.33;28.00;99730.88;5037819;28;19929;-87
2022/08/15 09:21:15;;;;;;;;;;;;;;;32.27;27.94;99733.19;5037357;28;19928;-87
2022/08/15 09:23:43;;;;;;;;;;;;;;;32.44;27.45;99736.69;5069852;28;19959;-87
2022/08/15 09:26:14;;;;;;;;;;;;;;;33.00;27.14;99733.16;5053120;28;20411;-87
2022/08/15 09:28:50;;;;;;;;;;;;;;;33.30;26.42;99729.53;5052859;28;19932;-86
2022/08/15 09:31:22;;;;;;;;;;;;;;;33.26;25.66;99735.09;5053298;28;19929;-87
2022/08/15 09:34:05;;;;;;;;;;;;;;;33.30;25.67;99726.75;5052485;28;19929;-86
2022/08/15 09:36:56;;;;;;;;;;;;;;;33.51;25.47;99726.22;5054817;28;19936;-87
2022/08/15 09:39:36;;;;;;;;;;;;;;;33.72;25.02;99722.88;5069436;28;19929;-87
2022/08/15 09:42:31;;;;;;;;;;;;;;;33.63;24.61;99729.59;5035246;28;19972;-87
2022/08/15 09:45:08;;;;;;;;;;;;;;;33.46;24.97;99718.97;5011278;28;20005;-87
2022/08/15 09:47:39;;;;;;;;;;;;;;;33.20;25.15;99722.66;5011309;28;19929;-86
2022/08/15 09:50:16;;;;;;;;;;;;;;;33.42;25.15;99727.34;5012202;28;19930;-86
2022/08/15 09:53:07;;;;;;;;;;;;;;;33.66;24.76;99726.03;5011256;28;20186;-86
2022/08/15 09:55:39;;;;;;;;;;;;;;;34.38;24.25;99725.91;5011262;28;19991;-87
2022/08/15 09:58:20;;;;;;;;;;;;;;;35.04;23.66;99721.16;5011199;28;19929;-87
2022/08/15 10:01:06;;;;;;;;;;;;;;;35.26;23.33;99727.72;5010787;28;19937;-86
2022/08/15 10:03:44;;;;;;;;;;;;;;;35.26;23.12;99724.91;5011421;28;19933;-88
2022/08/15 10:06:16;;;;;;;;;;;;;;;35.68;22.95;99720.66;5011051;28;19984;-86
2022/08/15 10:08:59;;;;;;;;;;;;;;;36.12;22.34;99713.94;5010550;28;20428;-87
2022/08/15 10:11:52;;;;;;;;;;;;;;;36.39;22.14;99716.34;5011079;28;19939;-87
2022/08/15 10:14:29;;;;;;;;;;;;;;;36.80;21.73;99724.34;5011027;28;20003;-86
2022/08/15 10:16:59;;;;;;;;;;;;;;;36.59;21.69;99714.75;5010191;28;19984;-85
2022/08/15 10:19:27;;;;;;;;;;;;;;;36.77;21.62;99722.34;5009514;28;20024;-84
2022/08/15 10:22:22;;;;;;;;;;;;;;;36.42;22.18;99712.72;5035018;28;19928;-86
2022/08/15 10:25:17;;;;;;;;;;;;;;;35.19;23.29;99712.84;5048138;28;19929;-86
2022/08/15 10:27:56;;;;;;;;;;;;;;;34.43;24.02;99715.13;5050021;28;20031;-86
2022/08/15 10:30:30;;;;;;;;;;;;;;;33.95;24.64;99714.31;5052715;28;20370;-86
2022/08/15 10:33:30;;;;;;;;;;;;;;;33.86;24.59;99707.03;5052023;28;19928;-85
2022/08/15 10:36:15;;;;;;;;;;;;;;;34.22;24.45;99712.19;5052384;28;20346;-85
2022/08/15 10:39:03;;;;;;;;;;;;;;;34.83;24.08;99716.25;5049096;28;19929;-87
2022/08/15 10:41:52;;;;;;;;;;;;;;;34.62;23.79;99707.72;4699821;28;10000547;-88
2022/08/15 10:44:20;;;;;;;;;;;;;;;34.25;23.75;99711.41;5029570;28;19936;-84
2022/08/15 10:47:19;;;;;;;;;;;;;;;34.26;23.46;99707.41;5044499;28;19975;-86
2022/08/15 10:49:53;;;;;;;;;;;;;;;35.20;23.00;99704.06;5047511;28;20039;-87
2022/08/15 10:52:38;;;;;;;;;;;;;;;36.07;21.78;99711.50;5047863;28;19935;-86
2022/08/15 10:55:13;;;;;;;;;;;;;;;36.72;21.37;99717.13;5047093;28;20031;-87
2022/08/15 10:57:49;;;;;;;;;;;;;;;37.40;20.51;99711.28;5047409;28;19935;-87
2022/08/15 11:00:27;;;;;;;;;;;;;;;37.85;20.35;99711.44;5046169;28;19971;-85
2022/08/15 11:03:34;;;;;;;;;;;;;;;38.20;20.24;99713.22;5047304;28;19951;-89
2022/08/15 11:06:22;;;;;;;;;;;;;;;38.16;20.08;99709.66;5049457;28;20383;-88
2022/08/15 11:08:53;;;;;;;;;;;;;;;37.92;20.16;99711.41;5063602;28;19932;-89
2022/08/15 11:11:21;;;;;;;;;;;;;;;37.63;20.57;99713.59;5043418;28;19932;-89
2022/08/15 11:13:55;;;;;;;;;;;;;;;37.59;20.57;99719.25;5052326;28;20388;-87
2022/08/15 11:16:35;;;;;;;;;;;;;;;37.67;20.83;99720.00;5053248;28;20283;-89
2022/08/15 11:19:33;;;;;;;;;;;;;;;38.17;20.11;99712.03;5033160;28;19936;-88
2022/08/15 11:22:27;;;;;;;;;;;;;;;37.01;21.22;99715.84;5009320;28;19936;-90
2022/08/15 11:24:56;;;;;;;;;;;;;;;36.63;21.58;99709.91;5009143;28;19949;-88
2022/08/15 11:27:26;;;;;;;;;;;;;;;36.69;21.50;99698.25;4976445;28;19937;-88
2022/08/15 11:29:59;;;;;;;;;;;;;;;37.07;21.63;99700.19;5008756;28;20278;-88
2022/08/15 11:32:48;;;;;;;;;;;;;;;37.48;21.10;99712.88;5010161;28;19929;-87
2022/08/15 11:35:21;;;;;;;;;;;;;;;37.64;20.44;99712.41;5007636;28;19929;-88
2022/08/15 11:37:48;;;;;;;;;;;;;;;37.71;21.00;99703.91;5009418;28;20315;-88
2022/08/15 11:40:20;;;;;;;;;;;;;;;37.85;20.81;99703.78;5006750;28;19929;-88
2022/08/15 11:42:47;;;;;;;;;;;;;;;38.09;20.77;99692.81;5006890;28;19984;-89
2022/08/15 11:45:31;;;;;;;;;;;;;;;38.48;20.63;99686.03;4996418;28;20089;-89
2022/08/15 11:48:14;;;;;;;;;;;;;;;38.56;20.32;99696.00;5009406;28;19953;-88
2022/08/15 11:50:41;;;;;;;;;;;;;;;38.78;20.32;99697.38;5009524;28;20140;-88
2022/08/15 11:53:11;;;;;;;;;;;;;;;38.67;20.29;99699.53;5008266;28;19929;-87
2022/08/15 11:55:44;;;;;;;;;;;;;;;38.38;20.53;99691.31;5008926;28;20035;-89
2022/08/15 11:58:14;;;;;;;;;;;;;;;38.45;20.69;99695.31;5028070;28;20384;-86
2022/08/15 12:00:45;;;;;;;;;;;;;;;39.01;19.94;99690.31;5050248;28;19935;-87
2022/08/15 12:03:20;;;;;;;;;;;;;;;38.58;20.00;99690.75;5051356;28;19928;-87
2022/08/15 12:06:13;;;;;;;;;;;;;;;38.67;20.20;99679.78;5050170;28;19928;-87
2022/08/15 12:09:09;;;;;;;;;;;;;;;38.98;19.91;99682.69;5050413;28;19937;-86
2022/08/15 12:11:45;;;;;;;;;;;;;;;39.27;18.93;99687.97;5059330;28;20474;-86
2022/08/15 12:14:20;;;;;;;;;;;;;;;38.94;18.88;99679.88;5048883;28;20024;-87
2022/08/15 12:17:03;;;;;;;;;;;;;;;38.61;18.71;99675.81;5048140;28;20002;-86
2022/08/15 12:19:37;;;;;;;;;;;;;;;38.96;18.91;99679.47;5049120;28;19932;-86
2022/08/15 12:22:29;;;;;;;;;;;;;;;39.07;18.51;99671.66;5048388;28;19933;-87
2022/08/15 12:25:16;;;;;;;;;;;;;;;39.17;18.36;99667.94;5048323;28;19935;-86
2022/08/15 12:28:05;;;;;;;;;;;;;;;39.33;18.36;99681.44;5051806;28;19936;-87
2022/08/15 12:30:57;;;;;;;;;;;;;;;39.75;17.44;99670.75;5035261;28;19932;-87
2022/08/15 12:33:24;;;;;;;;;;;;;;;39.46;17.55;99684.50;5034338;28;20194;-87
2022/08/15 12:35:53;;;;;;;;;;;;;;;39.42;17.80;99678.09;5034777;28;19933;-88
2022/08/15 12:38:28;;;;;;;;;;;;;;;40.08;17.45;99669.03;5033626;28;19975;-88
2022/08/15 12:40:59;;;;;;;;;;;;;;;40.69;17.38;99661.50;5034698;28;19960;-88
2022/08/15 12:43:46;;;;;;;;;;;;;;;40.86;17.36;99668.06;5049617;28;19929;-88
2022/08/15 12:46:16;;;;;;;;;;;;;;;40.55;17.46;99661.78;5048364;28;20478;-88
2022/08/15 12:48:52;;;;;;;;;;;;;;;40.86;17.09;99653.91;5054389;28;19936;-87
2022/08/15 12:51:26;;;;;;;;;;;;;;;40.51;17.63;99648.50;5053616;28;20467;-87
2022/08/15 12:53:55;;;;;;;;;;;;;;;40.29;17.41;99650.94;5061046;28;20114;-88
2022/08/15 12:56:22;;;;;;;;;;;;;;;39.61;18.00;99651.22;5054763;28;19929;-86
2022/08/15 12:59:11;;;;;;;;;;;;;;;39.42;18.57;99661.16;5054246;28;19971;-85
2022/08/15 13:01:39;;;;;;;;;;;;;;;39.33;18.44;99656.03;5053939;28;20375;-85
2022/08/15 13:04:23;;;;;;;;;;;;;;;39.44;18.55;99658.72;5052407;28;20399;-86
2022/08/15 13:07:12;;;;;;;;;;;;;;;39.60;18.29;99661.72;5052849;28;19987;-85
2022/08/15 13:09:40;;;;;;;;;;;;;;;39.77;17.77;99659.81;5052861;28;19929;-83
2022/08/15 13:12:07;;;;;;;;;;;;;;;38.62;18.49;99645.63;5054062;28;19929;-89
2022/08/15 13:14:44;;;;;;;;;;;;;;;38.91;18.44;99651.72;5028742;28;20032;-87
2022/08/15 13:17:14;;;;;;;;;;;;;;;39.47;18.60;99642.94;5052103;28;20032;-86
2022/08/15 13:25:38;;;;;;;;;;;;;;;40.53;18.01;99641.59;5053871;28;20366;-86
2022/08/15 13:28:07;;;;;;;;;;;;;;;40.80;17.33;99635.84;5053720;28;19929;-84
2022/08/15 13:30:37;;;;;;;;;;;;;;;41.54;16.51;99630.59;5053291;28;19928;-85
2022/08/15 13:33:07;;;;;;;;;;;;;;;41.57;16.83;99628.91;5052458;28;19982;-85
2022/08/15 13:35:35;;;;;;;;;;;;;;;41.39;16.71;99628.53;5053019;28;19928;-84
2022/08/15 13:38:23;;;;;;;;;;;;;;;41.58;16.73;99624.88;5050184;28;20491;-85
2022/08/15 13:40:51;;;;;;;;;;;;;;;41.73;16.54;99626.09;5031775;28;19957;-86
2022/08/15 13:43:21;;;;;;;;;;;;;;;41.71;16.46;99622.13;5050212;28;19982;-86
2022/08/15 13:45:49;;;;;;;;;;;;;;;41.97;16.23;99628.78;5052312;28;19929;-86
2022/08/15 13:48:32;;;;;;;;;;;;;;;41.65;16.17;99630.34;5053158;28;20307;-86
2022/08/15 13:51:06;;;;;;;;;;;;;;;41.88;16.78;99617.22;5051700;28;19937;-86